Time;durP1;ratioP1;P1;durP2;ratioP2;P2;SDS_P1;SDS_P2;PMS_P1;PMS_P2;Temp;Humidity;BMP_temperature;BMP_pressure;BME280_temperature;BME280_humidity;BME280_pressure;Samples;Min_cycle;Max_cycle;Signal;HPM_P1;HPM_P2
2021/12/12 00:00:26;;;;;;;;;;;8.40;33.90;;;;;;5037543;28;19966;-80
2021/12/12 00:02:58;;;;;;;;;;;8.30;33.20;;;;;;5026395;28;19921;-78
2021/12/12 00:05:28;;;;;;;;;;;8.40;32.90;;;;;;5035614;28;20316;-78
2021/12/12 00:07:55;;;;;;;;;;;8.40;33.00;;;;;;5033961;28;19925;-79
2021/12/12 00:10:24;;;;;;;;;;;8.40;32.70;;;;;;5035457;28;19943;-81
2021/12/12 00:12:54;;;;;;;;;;;8.40;33.10;;;;;;5035044;28;19920;-80
2021/12/12 00:15:21;;;;;;;;;;;8.40;32.70;;;;;;5050946;28;19925;-81
2021/12/12 00:17:48;;;;;;;;;;;8.50;32.60;;;;;;5031386;28;19920;-79
2021/12/12 00:20:17;;;;;;;;;;;8.50;32.80;;;;;;5033244;28;19920;-79
2021/12/12 00:22:44;;;;;;;;;;;8.50;32.50;;;;;;5024664;28;19943;-79
2021/12/12 00:25:11;;;;;;;;;;;8.50;32.70;;;;;;5033108;28;19920;-80
2021/12/12 00:27:38;;;;;;;;;;;8.40;32.60;;;;;;5034786;28;19920;-80
2021/12/12 00:30:07;;;;;;;;;;;8.50;32.40;;;;;;5033211;28;19924;-81
2021/12/12 00:32:36;;;;;;;;;;;8.40;32.30;;;;;;5030723;28;19921;-79
2021/12/12 00:35:07;;;;;;;;;;;8.50;32.10;;;;;;5036419;28;19927;-78
2021/12/12 00:37:34;;;;;;;;;;;8.50;32.30;;;;;;5034575;28;19990;-78
2021/12/12 00:40:04;;;;;;;;;;;8.40;33.20;;;;;;5033659;28;19924;-81
2021/12/12 00:42:33;;;;;;;;;;;8.30;32.10;;;;;;5034186;28;19986;-81
2021/12/12 00:45:00;;;;;;;;;;;8.30;32.20;;;;;;5030433;28;19946;-78
2021/12/12 00:47:27;;;;;;;;;;;8.30;32.30;;;;;;5033303;28;19970;-79
2021/12/12 00:50:11;;;;;;;;;;;8.40;31.50;;;;;;5032882;28;20021;-80
2021/12/12 00:52:38;;;;;;;;;;;8.40;32.00;;;;;;5033260;28;19970;-82
2021/12/12 00:55:05;;;;;;;;;;;8.30;32.70;;;;;;5032472;28;19924;-78
2021/12/12 00:57:32;;;;;;;;;;;8.20;33.30;;;;;;5032320;28;20336;-78
2021/12/12 00:59:59;;;;;;;;;;;8.10;33.40;;;;;;5031983;28;19921;-81
2021/12/12 01:02:29;;;;;;;;;;;8.10;33.70;;;;;;5052146;28;19982;-81
2021/12/12 01:04:58;;;;;;;;;;;8.00;33.60;;;;;;5024736;28;20174;-78
2021/12/12 01:07:26;;;;;;;;;;;8.00;32.50;;;;;;5028376;28;20369;-78
2021/12/12 01:09:58;;;;;;;;;;;8.10;32.90;;;;;;5032642;28;20430;-80
2021/12/12 01:12:28;;;;;;;;;;;8.10;32.90;;;;;;5028099;28;19920;-79
2021/12/12 01:14:58;;;;;;;;;;;8.10;32.20;;;;;;5034565;28;19935;-80
2021/12/12 01:17:27;;;;;;;;;;;8.20;32.20;;;;;;5032559;28;19970;-79
2021/12/12 01:19:58;;;;;;;;;;;8.20;32.10;;;;;;5025613;28;19968;-79
2021/12/12 01:22:30;;;;;;;;;;;8.20;32.00;;;;;;5044870;28;19928;-79
2021/12/12 01:24:58;;;;;;;;;;;8.20;32.60;;;;;;5035501;28;19974;-79
2021/12/12 01:27:25;;;;;;;;;;;8.20;32.30;;;;;;5032172;28;19924;-80
2021/12/12 01:29:52;;;;;;;;;;;8.10;32.20;;;;;;5032667;28;20269;-81
2021/12/12 01:32:24;;;;;;;;;;;8.10;32.20;;;;;;5034282;28;20297;-81
2021/12/12 01:34:51;;;;;;;;;;;8.00;32.50;;;;;;5033761;28;19925;-79
2021/12/12 01:39:59;;;;;;;;;;;8.00;33.10;;;;;;5052834;28;19921;-78
2021/12/12 01:42:29;;;;;;;;;;;7.90;34.10;;;;;;5046526;28;19971;-81
2021/12/12 01:44:58;;;;;;;;;;;7.90;33.60;;;;;;5033312;28;19924;-81
2021/12/12 01:47:27;;;;;;;;;;;7.90;33.20;;;;;;5028603;28;20324;-79
2021/12/12 01:49:57;;;;;;;;;;;7.90;33.10;;;;;;5031909;28;20380;-79
2021/12/12 01:52:25;;;;;;;;;;;7.90;33.30;;;;;;5022527;28;19975;-81
2021/12/12 01:54:54;;;;;;;;;;;7.80;33.50;;;;;;5025957;28;19925;-81
2021/12/12 01:57:26;;;;;;;;;;;7.70;33.30;;;;;;5034250;28;19928;-81
2021/12/12 01:59:54;;;;;;;;;;;7.70;33.50;;;;;;5023521;28;19925;-81
2021/12/12 02:02:23;;;;;;;;;;;7.80;33.50;;;;;;5016762;28;19920;-81
2021/12/12 02:04:53;;;;;;;;;;;7.70;33.00;;;;;;5025014;28;20004;-81
2021/12/12 02:07:23;;;;;;;;;;;7.80;33.20;;;;;;5028551;28;19924;-81
2021/12/12 02:09:51;;;;;;;;;;;7.70;33.20;;;;;;5028520;28;19925;-79
2021/12/12 02:12:20;;;;;;;;;;;7.70;33.10;;;;;;5034808;28;19928;-79
2021/12/12 02:14:47;;;;;;;;;;;7.70;33.00;;;;;;5034464;28;19927;-79
2021/12/12 02:17:20;;;;;;;;;;;7.70;32.90;;;;;;5030915;28;19921;-78
2021/12/12 02:22:52;;;;;;;;;;;7.70;33.10;;;;;;5052056;28;20399;-80
2021/12/12 02:36:24;;;;;;;;;;;7.70;32.50;;;;;;5033593;28;19921;-81
2021/12/12 02:38:52;;;;;;;;;;;7.70;32.70;;;;;;5027811;28;19971;-81
2021/12/12 02:41:20;;;;;;;;;;;7.70;32.80;;;;;;5030358;28;19921;-80
2021/12/12 02:43:52;;;;;;;;;;;7.70;32.10;;;;;;5031840;28;20437;-79
2021/12/12 02:46:20;;;;;;;;;;;7.70;32.50;;;;;;5029714;28;20343;-79
2021/12/12 02:48:48;;;;;;;;;;;7.70;33.00;;;;;;5032981;28;19925;-76
2021/12/12 02:51:16;;;;;;;;;;;7.70;32.60;;;;;;5024065;28;19952;-80
2021/12/12 02:53:45;;;;;;;;;;;7.70;32.50;;;;;;5028623;28;20385;-79
2021/12/12 02:56:14;;;;;;;;;;;7.70;32.20;;;;;;5036007;28;19921;-79
2021/12/12 02:58:41;;;;;;;;;;;7.60;32.40;;;;;;5036143;28;19921;-79
2021/12/12 03:01:15;;;;;;;;;;;7.70;31.70;;;;;;5037789;28;19982;-79
2021/12/12 03:03:44;;;;;;;;;;;7.70;31.80;;;;;;5025520;28;19982;-80
2021/12/12 03:06:13;;;;;;;;;;;7.70;32.10;;;;;;5052391;28;19920;-81
2021/12/12 03:08:41;;;;;;;;;;;7.60;32.30;;;;;;5026991;28;19998;-81
2021/12/12 03:11:09;;;;;;;;;;;7.60;31.80;;;;;;5034745;28;20923;-81
2021/12/12 03:13:36;;;;;;;;;;;7.70;31.70;;;;;;5033357;28;19925;-78
2021/12/12 03:16:03;;;;;;;;;;;7.70;32.10;;;;;;5033955;28;19920;-81
2021/12/12 03:18:31;;;;;;;;;;;7.60;32.10;;;;;;5033610;28;19924;-78
2021/12/12 03:21:01;;;;;;;;;;;7.70;32.10;;;;;;5037154;28;19929;-82
2021/12/12 03:23:33;;;;;;;;;;;7.70;32.20;;;;;;5030926;28;19924;-78
2021/12/12 03:26:03;;;;;;;;;;;7.70;32.10;;;;;;5033722;28;19925;-77
2021/12/12 03:28:30;;;;;;;;;;;7.70;32.00;;;;;;5038150;28;19925;-81
2021/12/12 03:30:59;;;;;;;;;;;7.70;31.60;;;;;;5031694;28;19977;-81
2021/12/12 03:33:28;;;;;;;;;;;7.70;31.70;;;;;;5026139;28;19921;-81
2021/12/12 03:35:56;;;;;;;;;;;7.60;32.00;;;;;;5031177;28;19921;-81
2021/12/12 03:38:27;;;;;;;;;;;7.60;31.40;;;;;;5035750;28;19921;-79
2021/12/12 03:41:00;;;;;;;;;;;7.70;31.30;;;;;;5032131;28;19928;-80
2021/12/12 03:43:28;;;;;;;;;;;7.70;31.10;;;;;;5028718;28;19929;-81
2021/12/12 03:45:56;;;;;;;;;;;7.70;30.40;;;;;;5036206;28;20491;-80
2021/12/12 03:48:28;;;;;;;;;;;7.70;30.70;;;;;;5029408;28;19929;-81
2021/12/12 03:50:57;;;;;;;;;;;7.80;30.80;;;;;;5034792;28;20278;-79
2021/12/12 03:53:25;;;;;;;;;;;7.70;30.50;;;;;;5036803;28;20385;-79
2021/12/12 03:55:52;;;;;;;;;;;7.80;30.70;;;;;;5041267;28;19921;-81
2021/12/12 03:58:19;;;;;;;;;;;7.80;30.50;;;;;;5033284;28;19925;-79
2021/12/12 04:00:48;;;;;;;;;;;7.90;30.60;;;;;;5037855;28;19920;-78
2021/12/12 04:03:16;;;;;;;;;;;7.90;30.00;;;;;;5022857;28;19978;-80
2021/12/12 04:05:45;;;;;;;;;;;8.00;29.90;;;;;;5027398;28;19943;-79
2021/12/12 04:08:12;;;;;;;;;;;8.00;30.00;;;;;;5032306;28;20401;-81
2021/12/12 04:10:39;;;;;;;;;;;8.00;29.80;;;;;;5034299;28;19928;-80
2021/12/12 04:13:06;;;;;;;;;;;8.00;29.40;;;;;;5048329;28;19925;-78
2021/12/12 04:15:33;;;;;;;;;;;8.00;29.70;;;;;;5034309;28;19921;-80
2021/12/12 04:18:00;;;;;;;;;;;8.10;29.30;;;;;;5026371;28;19921;-78
2021/12/12 04:20:28;;;;;;;;;;;8.10;29.60;;;;;;5034045;28;19921;-79
2021/12/12 04:22:55;;;;;;;;;;;8.00;29.70;;;;;;5025947;28;19921;-80
2021/12/12 04:25:22;;;;;;;;;;;7.90;30.20;;;;;;5036671;28;19928;-81
2021/12/12 04:27:50;;;;;;;;;;;7.90;30.30;;;;;;5028538;28;19925;-81
2021/12/12 04:30:17;;;;;;;;;;;7.90;30.00;;;;;;5033112;28;19921;-77
2021/12/12 04:32:44;;;;;;;;;;;7.90;30.00;;;;;;5027148;28;20411;-79
2021/12/12 04:35:20;;;;;;;;;;;7.90;29.90;;;;;;5036750;28;19950;-78
2021/12/12 04:37:49;;;;;;;;;;;7.90;30.10;;;;;;5039234;28;19935;-79
2021/12/12 04:40:17;;;;;;;;;;;7.90;30.00;;;;;;5034038;28;19931;-81
2021/12/12 04:42:45;;;;;;;;;;;7.90;30.10;;;;;;5031086;28;19920;-81
2021/12/12 04:45:12;;;;;;;;;;;7.90;30.50;;;;;;5025353;28;19921;-79
2021/12/12 04:50:43;;;;;;;;;;;7.90;29.90;;;;;;5049741;28;19970;-80
2021/12/12 04:53:29;;;;;;;;;;;7.90;30.10;;;;;;5035601;28;19924;-79
2021/12/12 04:56:10;;;;;;;;;;;7.80;30.00;;;;;;5019318;28;21321;-79
2021/12/12 04:58:41;;;;;;;;;;;7.80;30.00;;;;;;5048260;28;19924;-81
2021/12/12 05:01:09;;;;;;;;;;;7.90;30.00;;;;;;5035515;28;19925;-81
2021/12/12 05:03:47;;;;;;;;;;;7.80;29.90;;;;;;5034083;28;19928;-79
2021/12/12 05:06:36;;;;;;;;;;;7.90;29.90;;;;;;5031008;28;19925;-79
2021/12/12 05:09:08;;;;;;;;;;;7.90;29.90;;;;;;5024345;28;19931;-79
2021/12/12 05:11:53;;;;;;;;;;;7.90;29.80;;;;;;5023454;28;19925;-80
2021/12/12 05:14:23;;;;;;;;;;;7.90;29.40;;;;;;5034951;28;19975;-81
2021/12/12 05:16:52;;;;;;;;;;;7.90;29.70;;;;;;5032266;28;19929;-80
2021/12/12 05:19:22;;;;;;;;;;;7.90;30.30;;;;;;5027644;28;19933;-82
2021/12/12 05:21:52;;;;;;;;;;;7.90;30.00;;;;;;5032453;28;19974;-79
2021/12/12 05:24:23;;;;;;;;;;;7.80;30.00;;;;;;5031647;28;20281;-79
2021/12/12 05:26:54;;;;;;;;;;;7.80;30.00;;;;;;5032480;28;20438;-80
2021/12/12 05:29:34;;;;;;;;;;;7.80;29.90;;;;;;5028425;28;19921;-80
2021/12/12 05:32:02;;;;;;;;;;;7.80;29.80;;;;;;5028026;28;19921;-80
2021/12/12 05:34:31;;;;;;;;;;;7.70;30.40;;;;;;5036996;28;19921;-79
2021/12/12 05:36:59;;;;;;;;;;;7.70;30.40;;;;;;5045057;28;19928;-80
2021/12/12 05:39:26;;;;;;;;;;;7.60;31.20;;;;;;5029479;28;19921;-79
2021/12/12 05:41:53;;;;;;;;;;;7.50;31.10;;;;;;5035256;28;19927;-79
2021/12/12 05:44:22;;;;;;;;;;;7.40;31.50;;;;;;5032404;28;19925;-81
2021/12/12 05:46:49;;;;;;;;;;;7.30;31.40;;;;;;5023746;28;19921;-79
2021/12/12 05:49:16;;;;;;;;;;;7.30;30.20;;;;;;5043066;28;19925;-80
2021/12/12 05:51:43;;;;;;;;;;;7.40;30.50;;;;;;5029134;28;20278;-79
2021/12/12 05:54:10;;;;;;;;;;;7.40;30.70;;;;;;5034282;28;19924;-78
2021/12/12 05:56:37;;;;;;;;;;;7.30;31.00;;;;;;5045903;28;20384;-81
2021/12/12 05:59:06;;;;;;;;;;;7.30;31.10;;;;;;5020625;28;19928;-81
2021/12/12 06:01:33;;;;;;;;;;;7.20;31.30;;;;;;5019285;28;19920;-81
2021/12/12 06:04:00;;;;;;;;;;;7.10;31.80;;;;;;5035312;28;19943;-78
2021/12/12 06:06:31;;;;;;;;;;;7.10;31.50;;;;;;5033434;28;20369;-81
2021/12/12 06:08:59;;;;;;;;;;;7.10;32.30;;;;;;5044252;28;19928;-81
2021/12/12 06:11:27;;;;;;;;;;;7.10;31.00;;;;;;5028018;28;19921;-79
2021/12/12 06:13:55;;;;;;;;;;;7.00;31.60;;;;;;5030523;28;20405;-80
2021/12/12 06:16:22;;;;;;;;;;;7.00;31.30;;;;;;5026379;28;20296;-81
2021/12/12 06:18:55;;;;;;;;;;;6.90;32.00;;;;;;5032301;28;19929;-79
2021/12/12 06:21:22;;;;;;;;;;;6.80;32.20;;;;;;5033677;28;19979;-80
2021/12/12 06:23:49;;;;;;;;;;;6.80;31.90;;;;;;5052322;28;19936;-81
2021/12/12 06:26:17;;;;;;;;;;;6.90;31.10;;;;;;5031059;28;20415;-81
2021/12/12 06:28:44;;;;;;;;;;;7.00;31.40;;;;;;5045614;28;19925;-81
2021/12/12 06:31:12;;;;;;;;;;;7.10;32.00;;;;;;5026024;28;19920;-81
2021/12/12 06:33:39;;;;;;;;;;;7.10;31.20;;;;;;5027046;28;19920;-79
2021/12/12 06:36:07;;;;;;;;;;;7.10;31.20;;;;;;5025879;28;20435;-79
2021/12/12 06:38:35;;;;;;;;;;;7.00;32.10;;;;;;5036172;28;19974;-79
2021/12/12 06:41:02;;;;;;;;;;;6.80;35.10;;;;;;5029065;28;20396;-80
2021/12/12 06:43:30;;;;;;;;;;;6.70;35.20;;;;;;5032248;28;19991;-81
2021/12/12 06:45:57;;;;;;;;;;;6.50;34.60;;;;;;5035538;28;19920;-80
2021/12/12 06:48:24;;;;;;;;;;;6.40;34.10;;;;;;5031884;28;19925;-81
2021/12/12 06:50:52;;;;;;;;;;;6.30;34.20;;;;;;5038207;28;19921;-80
2021/12/12 06:53:20;;;;;;;;;;;6.30;34.40;;;;;;5029154;28;19961;-80
2021/12/12 06:55:47;;;;;;;;;;;6.20;35.00;;;;;;5037598;28;19970;-80
2021/12/12 06:58:15;;;;;;;;;;;6.20;33.90;;;;;;5031889;28;20395;-80
2021/12/12 07:00:44;;;;;;;;;;;6.20;33.40;;;;;;5044655;28;19970;-78
2021/12/12 07:03:12;;;;;;;;;;;6.20;33.70;;;;;;5031936;28;20396;-80
2021/12/12 07:05:39;;;;;;;;;;;6.30;34.00;;;;;;5031046;28;19925;-81
2021/12/12 07:08:06;;;;;;;;;;;6.30;34.20;;;;;;5032573;28;19921;-81
2021/12/12 07:10:33;;;;;;;;;;;6.20;34.30;;;;;;5032269;28;19921;-79
2021/12/12 07:13:01;;;;;;;;;;;6.20;34.60;;;;;;5033905;28;19925;-80
2021/12/12 07:15:40;;;;;;;;;;;6.20;34.90;;;;;;5037339;28;19924;-81
2021/12/12 07:18:10;;;;;;;;;;;6.20;34.90;;;;;;5030481;28;19921;-81
2021/12/12 07:20:37;;;;;;;;;;;6.10;34.70;;;;;;5038323;28;19925;-79
2021/12/12 07:23:05;;;;;;;;;;;6.20;34.90;;;;;;5032803;28;20336;-80
2021/12/12 07:25:36;;;;;;;;;;;6.10;35.30;;;;;;5023439;28;19924;-81
2021/12/12 07:28:03;;;;;;;;;;;6.10;34.60;;;;;;5027498;28;19920;-79
2021/12/12 07:30:30;;;;;;;;;;;6.10;35.00;;;;;;5053239;28;19970;-81
2021/12/12 07:33:03;;;;;;;;;;;6.20;34.50;;;;;;5031283;28;19928;-78
2021/12/12 07:35:32;;;;;;;;;;;6.20;34.50;;;;;;5030703;28;19928;-82
2021/12/12 07:37:59;;;;;;;;;;;6.70;33.70;;;;;;5037509;28;19982;-80
2021/12/12 07:40:26;;;;;;;;;;;7.60;32.40;;;;;;5035008;28;19928;-79
2021/12/12 07:42:53;;;;;;;;;;;8.40;30.80;;;;;;5026336;28;19920;-79
2021/12/12 07:45:21;;;;;;;;;;;9.20;29.40;;;;;;5033662;28;19935;-78
2021/12/12 07:47:48;;;;;;;;;;;9.70;28.30;;;;;;5033338;28;19924;-80
2021/12/12 07:50:16;;;;;;;;;;;10.00;28.60;;;;;;5030480;28;19925;-79
2021/12/12 07:52:44;;;;;;;;;;;10.20;28.90;;;;;;5036807;28;19925;-79
2021/12/12 07:55:13;;;;;;;;;;;10.20;28.30;;;;;;5032951;28;20289;-81
2021/12/12 07:57:39;;;;;;;;;;;10.00;28.90;;;;;;5032057;28;19925;-79
2021/12/12 08:00:09;;;;;;;;;;;9.80;29.10;;;;;;5028821;28;19943;-79
2021/12/12 08:02:37;;;;;;;;;;;9.50;29.70;;;;;;5038236;28;19924;-81
2021/12/12 08:05:05;;;;;;;;;;;9.30;30.70;;;;;;5022352;28;19924;-82
2021/12/12 08:07:34;;;;;;;;;;;9.10;29.90;;;;;;5033825;28;21103;-79
2021/12/12 08:10:01;;;;;;;;;;;8.90;29.80;;;;;;5035881;28;19974;-79
2021/12/12 08:12:29;;;;;;;;;;;8.80;30.00;;;;;;5036757;28;20451;-81
2021/12/12 08:14:56;;;;;;;;;;;8.70;30.60;;;;;;5030738;28;19921;-79
2021/12/12 08:17:23;;;;;;;;;;;8.70;30.70;;;;;;5036526;28;19924;-80
2021/12/12 08:19:51;;;;;;;;;;;8.70;30.70;;;;;;5037880;28;19920;-80
2021/12/12 08:22:18;;;;;;;;;;;8.80;31.00;;;;;;5025181;28;19921;-82
2021/12/12 08:24:45;;;;;;;;;;;8.80;31.00;;;;;;5033506;28;19927;-81
2021/12/12 08:27:13;;;;;;;;;;;8.90;31.10;;;;;;5036635;28;19975;-79
2021/12/12 08:29:40;;;;;;;;;;;9.00;30.80;;;;;;5050461;28;19924;-79
2021/12/12 08:32:09;;;;;;;;;;;9.00;30.00;;;;;;5034124;28;19921;-80
2021/12/12 08:34:59;;;;;;;;;;;9.10;30.20;;;;;;5016980;28;19925;-81
2021/12/12 08:37:26;;;;;;;;;;;9.10;30.30;;;;;;5026728;28;19947;-80
2021/12/12 08:39:54;;;;;;;;;;;9.10;30.70;;;;;;5036528;28;19928;-81
2021/12/12 08:42:26;;;;;;;;;;;9.20;30.40;;;;;;5029130;28;19924;-82
2021/12/12 08:44:54;;;;;;;;;;;9.20;30.20;;;;;;5037404;28;19920;-80
2021/12/12 08:47:21;;;;;;;;;;;9.30;31.30;;;;;;5038726;28;19924;-81
2021/12/12 08:49:48;;;;;;;;;;;9.30;30.30;;;;;;5037028;28;19920;-81
2021/12/12 08:52:22;;;;;;;;;;;9.30;29.70;;;;;;5034970;28;19970;-78
2021/12/12 08:54:51;;;;;;;;;;;9.40;30.50;;;;;;5035359;28;19942;-78
2021/12/12 08:57:32;;;;;;;;;;;9.40;30.90;;;;;;5028686;28;19929;-80
2021/12/12 09:00:21;;;;;;;;;;;9.50;31.20;;;;;;5028578;28;19963;-81
2021/12/12 09:02:50;;;;;;;;;;;9.60;30.20;;;;;;5033231;28;20421;-78
2021/12/12 09:05:20;;;;;;;;;;;9.70;30.60;;;;;;5034930;28;19921;-79
2021/12/12 09:08:10;;;;;;;;;;;9.80;30.00;;;;;;5032514;28;19970;-79
2021/12/12 09:10:40;;;;;;;;;;;9.80;29.90;;;;;;5033006;28;19924;-79
2021/12/12 09:13:13;;;;;;;;;;;9.90;29.80;;;;;;5033047;28;19921;-79
2021/12/12 09:15:54;;;;;;;;;;;10.00;30.30;;;;;;5030211;28;19947;-79
2021/12/12 09:18:30;;;;;;;;;;;10.00;30.70;;;;;;5031344;28;19932;-79
2021/12/12 09:21:25;;;;;;;;;;;10.10;31.20;;;;;;5047877;28;19928;-79
2021/12/12 09:24:25;;;;;;;;;;;10.10;30.20;;;;;;5034003;28;19921;-82
2021/12/12 09:26:55;;;;;;;;;;;10.20;30.70;;;;;;4984766;28;20749;-81
2021/12/12 09:29:26;;;;;;;;;;;10.30;30.90;;;;;;5034793;28;19920;-77
2021/12/12 09:32:13;;;;;;;;;;;10.30;30.50;;;;;;5034006;28;19925;-81
2021/12/12 09:34:48;;;;;;;;;;;10.40;30.70;;;;;;5031303;28;20392;-79
2021/12/12 09:37:35;;;;;;;;;;;10.40;29.40;;;;;;5033742;28;19924;-81
2021/12/12 09:40:15;;;;;;;;;;;10.40;29.90;;;;;;5034059;28;19921;-81
2021/12/12 09:42:47;;;;;;;;;;;10.40;30.30;;;;;;5033155;28;19921;-81
2021/12/12 09:45:17;;;;;;;;;;;10.40;31.30;;;;;;5031649;28;19920;-78
2021/12/12 09:53:57;;;;;;;;;;;10.60;30.00;;;;;;5031661;28;19971;-79
2021/12/12 09:56:34;;;;;;;;;;;10.60;29.90;;;;;;5035069;28;19928;-79
2021/12/12 09:59:07;;;;;;;;;;;10.60;30.40;;;;;;5029781;28;19928;-79
2021/12/12 10:01:42;;;;;;;;;;;10.70;30.80;;;;;;5030642;28;19921;-78
2021/12/12 10:04:12;;;;;;;;;;;10.70;31.00;;;;;;5028850;28;19968;-78
2021/12/12 10:06:59;;;;;;;;;;;10.80;30.60;;;;;;5035635;28;19943;-78
2021/12/12 10:09:37;;;;;;;;;;;10.80;29.70;;;;;;5039340;28;20002;-78
2021/12/12 10:12:04;;;;;;;;;;;10.90;30.30;;;;;;5032660;28;19927;-78
2021/12/12 10:14:33;;;;;;;;;;;11.00;30.80;;;;;;5032635;28;19924;-81
2021/12/12 10:17:03;;;;;;;;;;;11.10;30.60;;;;;;5031863;28;19921;-81
2021/12/12 10:19:30;;;;;;;;;;;11.20;29.30;;;;;;5048582;28;20119;-78
2021/12/12 10:22:06;;;;;;;;;;;11.30;30.40;;;;;;5038652;28;20347;-78
2021/12/12 10:24:43;;;;;;;;;;;11.30;29.90;;;;;;5032680;28;20442;-80
2021/12/12 10:27:32;;;;;;;;;;;11.40;30.10;;;;;;5035030;28;19925;-78
2021/12/12 10:30:15;;;;;;;;;;;11.40;30.60;;;;;;5029115;28;19920;-81
2021/12/12 10:32:56;;;;;;;;;;;11.50;30.80;;;;;;5052200;28;19921;-78
2021/12/12 10:35:30;;;;;;;;;;;11.50;31.20;;;;;;5035005;28;19928;-80
2021/12/12 10:37:59;;;;;;;;;;;11.60;30.90;;;;;;5034402;28;20347;-79
2021/12/12 10:40:35;;;;;;;;;;;11.60;29.90;;;;;;5032632;28;19921;-79
2021/12/12 10:43:05;;;;;;;;;;;11.70;29.10;;;;;;5028883;28;19925;-79
2021/12/12 10:45:39;;;;;;;;;;;11.70;29.70;;;;;;5054361;28;19929;-78
2021/12/12 10:48:08;;;;;;;;;;;11.70;29.70;;;;;;5037486;28;19951;-82
2021/12/12 10:50:53;;;;;;;;;;;11.70;30.40;;;;;;5037361;28;20407;-79
2021/12/12 10:53:30;;;;;;;;;;;11.80;29.70;;;;;;5040085;28;19924;-79
2021/12/12 10:56:00;;;;;;;;;;;11.90;30.20;;;;;;5040818;28;19920;-78
2021/12/12 10:58:32;;;;;;;;;;;12.00;30.10;;;;;;5035991;28;19928;-79
2021/12/12 11:01:22;;;;;;;;;;;12.10;30.10;;;;;;5043739;28;19925;-79
2021/12/12 11:03:55;;;;;;;;;;;12.10;29.90;;;;;;5038085;28;20042;-80
2021/12/12 11:06:27;;;;;;;;;;;12.20;29.70;;;;;;5036436;28;19929;-80
2021/12/12 11:09:01;;;;;;;;;;;12.30;29.90;;;;;;5026397;28;20033;-79
2021/12/12 11:11:54;;;;;;;;;;;12.40;29.80;;;;;;5029348;28;19928;-78
2021/12/12 11:14:26;;;;;;;;;;;12.50;29.80;;;;;;4997482;28;19925;-79
2021/12/12 11:17:11;;;;;;;;;;;12.60;29.70;;;;;;5037900;28;19920;-82
2021/12/12 11:19:51;;;;;;;;;;;12.70;29.90;;;;;;5048449;28;19924;-81
2021/12/12 11:22:30;;;;;;;;;;;12.90;29.70;;;;;;5028679;28;19927;-80
2021/12/12 11:25:06;;;;;;;;;;;13.00;29.70;;;;;;5038841;28;20395;-79
2021/12/12 11:27:43;;;;;;;;;;;13.10;29.30;;;;;;5037675;28;20331;-79
2021/12/12 11:30:12;;;;;;;;;;;13.20;29.00;;;;;;5038589;28;19924;-79
2021/12/12 11:32:39;;;;;;;;;;;13.30;29.80;;;;;;5036990;28;19948;-80
2021/12/12 11:35:07;;;;;;;;;;;13.40;29.00;;;;;;5037942;28;19921;-79
2021/12/12 11:37:49;;;;;;;;;;;13.50;28.10;;;;;;5031499;28;19929;-80
2021/12/12 11:40:18;;;;;;;;;;;13.60;28.20;;;;;;5034519;28;19921;-82
2021/12/12 11:42:48;;;;;;;;;;;13.60;27.70;;;;;;5028630;28;19971;-80
2021/12/12 11:45:23;;;;;;;;;;;13.70;27.70;;;;;;5031215;28;20311;-80
2021/12/12 11:47:58;;;;;;;;;;;13.80;27.30;;;;;;5036093;28;19927;-80
2021/12/12 11:50:46;;;;;;;;;;;13.90;27.00;;;;;;5029822;28;20002;-80
2021/12/12 11:53:20;;;;;;;;;;;13.90;27.00;;;;;;5036254;28;19921;-79
2021/12/12 11:55:50;;;;;;;;;;;13.90;27.30;;;;;;5025002;28;19982;-80
2021/12/12 11:58:20;;;;;;;;;;;14.00;27.20;;;;;;5035253;28;19946;-79
2021/12/12 12:00:55;;;;;;;;;;;13.60;27.60;;;;;;5035648;28;19971;-79
2021/12/12 12:03:27;;;;;;;;;;;13.60;27.70;;;;;;5030261;28;20420;-80
2021/12/12 12:06:14;;;;;;;;;;;13.60;27.90;;;;;;5044707;28;20434;-80
2021/12/12 12:08:44;;;;;;;;;;;13.70;27.70;;;;;;5056039;28;19920;-80
2021/12/12 12:11:11;;;;;;;;;;;13.90;27.50;;;;;;5027959;28;20430;-78
2021/12/12 12:13:38;;;;;;;;;;;14.00;27.80;;;;;;5031799;28;19988;-79
2021/12/12 12:16:05;;;;;;;;;;;14.20;27.90;;;;;;5036618;28;19975;-81
2021/12/12 12:18:47;;;;;;;;;;;14.40;28.10;;;;;;5030341;28;20478;-79
2021/12/12 12:21:29;;;;;;;;;;;14.60;28.30;;;;;;5032144;28;19971;-79
2021/12/12 12:27:03;;;;;;;;;;;14.90;27.50;;;;;;5046630;28;19920;-81
2021/12/12 12:29:30;;;;;;;;;;;14.90;26.70;;;;;;5009156;28;19982;-79
2021/12/12 12:32:03;;;;;;;;;;;15.00;27.30;;;;;;5036728;28;19925;-79
2021/12/12 12:34:48;;;;;;;;;;;15.00;27.30;;;;;;5029502;28;19971;-79
2021/12/12 12:37:36;;;;;;;;;;;15.00;28.10;;;;;;5036604;28;20019;-80
2021/12/12 12:40:22;;;;;;;;;;;15.10;27.60;;;;;;5034859;28;20039;-79
2021/12/12 12:43:07;;;;;;;;;;;15.00;26.70;;;;;;5050568;28;19925;-81
2021/12/12 12:45:53;;;;;;;;;;;15.10;27.00;;;;;;5023321;28;19975;-79
2021/12/12 12:48:38;;;;;;;;;;;15.20;27.60;;;;;;5031008;28;20359;-79
2021/12/12 12:51:15;;;;;;;;;;;15.40;27.60;;;;;;5031713;28;19986;-80
2021/12/12 12:54:00;;;;;;;;;;;15.30;26.10;;;;;;5029149;28;19984;-78
2021/12/12 12:56:59;;;;;;;;;;;15.30;26.80;;;;;;5027869;28;19921;-81
2021/12/12 12:59:45;;;;;;;;;;;15.40;27.20;;;;;;4978277;28;20554;-79
2021/12/12 13:02:14;;;;;;;;;;;15.40;28.20;;;;;;5021585;28;20408;-81
2021/12/12 13:04:58;;;;;;;;;;;15.50;27.20;;;;;;5047516;28;19921;-79
2021/12/12 13:07:45;;;;;;;;;;;15.40;27.30;;;;;;5019799;28;20380;-79
2021/12/12 13:10:20;;;;;;;;;;;15.40;27.50;;;;;;5030365;28;19920;-79
2021/12/12 13:13:06;;;;;;;;;;;15.50;27.90;;;;;;5039657;28;19927;-79
2021/12/12 13:15:54;;;;;;;;;;;15.40;28.60;;;;;;5043025;28;19986;-81
2021/12/12 13:18:29;;;;;;;;;;;15.30;29.00;;;;;;5046081;28;19927;-79
2021/12/12 13:20:57;;;;;;;;;;;15.30;29.50;;;;;;5052940;28;19921;-79
2021/12/12 13:23:41;;;;;;;;;;;15.20;28.90;;;;;;5032130;28;19931;-81
2021/12/12 13:26:18;;;;;;;;;;;15.10;29.10;;;;;;5027050;28;19920;-78
2021/12/12 13:28:53;;;;;;;;;;;14.90;28.80;;;;;;5039509;28;20593;-81
2021/12/12 13:31:27;;;;;;;;;;;14.50;28.70;;;;;;5025037;28;19925;-80
2021/12/12 13:33:54;;;;;;;;;;;14.50;29.80;;;;;;5032998;28;20697;-82
2021/12/12 13:36:32;;;;;;;;;;;14.60;29.30;;;;;;5032323;28;19970;-80
2021/12/12 13:39:07;;;;;;;;;;;14.60;28.80;;;;;;5032401;28;19928;-79
2021/12/12 13:41:50;;;;;;;;;;;14.70;30.00;;;;;;5041378;28;20081;-79
2021/12/12 13:44:28;;;;;;;;;;;14.80;29.30;;;;;;5042786;28;19982;-79
2021/12/12 13:47:03;;;;;;;;;;;14.80;29.20;;;;;;5034435;28;19921;-79
2021/12/12 13:49:34;;;;;;;;;;;14.70;29.40;;;;;;5030709;28;19929;-81
2021/12/12 13:52:15;;;;;;;;;;;14.60;29.60;;;;;;5030773;28;19921;-81
2021/12/12 13:54:49;;;;;;;;;;;14.60;29.00;;;;;;5029760;28;19921;-79
2021/12/12 13:57:22;;;;;;;;;;;14.50;29.20;;;;;;5027174;28;20443;-79
2021/12/12 13:59:58;;;;;;;;;;;14.30;28.70;;;;;;5021076;28;19943;-80
2021/12/12 14:02:25;;;;;;;;;;;14.20;28.90;;;;;;5024155;28;19982;-81
2021/12/12 14:05:00;;;;;;;;;;;14.10;28.90;;;;;;5034912;28;19921;-81
2021/12/12 14:07:38;;;;;;;;;;;14.00;28.90;;;;;;5031293;28;19925;-81
2021/12/12 14:10:08;;;;;;;;;;;13.80;29.00;;;;;;5049315;28;19921;-81
2021/12/12 14:12:35;;;;;;;;;;;13.70;29.00;;;;;;5035371;28;19951;-80
2021/12/12 14:15:06;;;;;;;;;;;13.50;29.40;;;;;;5029883;28;19921;-80
2021/12/12 14:17:39;;;;;;;;;;;13.40;29.80;;;;;;5030623;28;19924;-80
2021/12/12 14:20:08;;;;;;;;;;;13.30;30.10;;;;;;5030610;28;19943;-81
2021/12/12 14:22:35;;;;;;;;;;;13.20;30.30;;;;;;5034472;28;19921;-80
2021/12/12 14:25:04;;;;;;;;;;;13.10;30.50;;;;;;5024342;28;19967;-80
2021/12/12 14:27:31;;;;;;;;;;;12.90;32.00;;;;;;5027718;28;19936;-80
2021/12/12 14:30:00;;;;;;;;;;;12.80;30.80;;;;;;5030949;28;19975;-81
2021/12/12 14:32:32;;;;;;;;;;;12.70;31.20;;;;;;5044372;28;19925;-80
2021/12/12 14:35:02;;;;;;;;;;;12.60;31.30;;;;;;5031473;28;19946;-81
2021/12/12 14:37:31;;;;;;;;;;;12.50;31.80;;;;;;5031301;28;19925;-79
2021/12/12 14:40:24;;;;;;;;;;;12.50;32.40;;;;;;5031977;28;19921;-79
2021/12/12 14:43:16;;;;;;;;;;;12.40;31.90;;;;;;5030343;28;20381;-81
2021/12/12 14:45:44;;;;;;;;;;;12.30;32.10;;;;;;5028519;28;19921;-80
2021/12/12 14:48:14;;;;;;;;;;;12.20;32.40;;;;;;5030150;28;19947;-81
2021/12/12 14:50:47;;;;;;;;;;;12.00;31.80;;;;;;5029413;28;19920;-79
2021/12/12 14:53:16;;;;;;;;;;;11.90;31.70;;;;;;5035874;28;19990;-82
2021/12/12 14:55:48;;;;;;;;;;;11.80;32.20;;;;;;5034112;28;20388;-79
2021/12/12 14:58:17;;;;;;;;;;;11.70;32.60;;;;;;5037042;28;19920;-80
2021/12/12 15:00:47;;;;;;;;;;;11.60;32.20;;;;;;5037837;28;20421;-79
2021/12/12 15:03:19;;;;;;;;;;;11.40;32.40;;;;;;5035748;28;19924;-79
2021/12/12 15:05:52;;;;;;;;;;;11.20;33.20;;;;;;5031587;28;19925;-79
2021/12/12 15:08:25;;;;;;;;;;;11.00;33.70;;;;;;5034845;28;20463;-79
2021/12/12 15:10:58;;;;;;;;;;;10.70;33.80;;;;;;5031303;28;19971;-81
2021/12/12 15:13:26;;;;;;;;;;;10.50;34.20;;;;;;5035839;28;19925;-79
2021/12/12 15:15:58;;;;;;;;;;;10.20;34.80;;;;;;5021603;28;19976;-79
2021/12/12 15:18:35;;;;;;;;;;;10.10;35.10;;;;;;5039772;28;19927;-79